Townville, SC (29689)

12:03 PM EST on March 01, 2015 (GMT -0500)
Reed Creek | Change Station
CLOSE
Current Station
Personal Weather Station
Location: Hartwell, GA
Elevation: 745 ft
Nearby Weather Stations

Elev 745 ft 34.48 °N, 82.91 °W | Updated 4 minutes ago

Overcast
Overcast
41.0 °F
Feels Like 41 °F
N
0.0
Wind Variable Wind from East

Today
High -- | Low -- °F
--% Chance of Precip.
Yesterday
High -- | Low -- °F
Precip. -- in
7:00 AM 6:27 PM
Waxing Gibbous, 86% visible
Pressure 30.50 in
Visibility 4.0 miles
Clouds Mostly Cloudy 600 ft
Overcast 1200 ft
Windchill 41 °F
Dew Point 40 °F
Humidity 95%
Rainfall 0.11 in
Snow Depth Not available.
UV 2 out of 12
Pollen 4.50 out of 12
Air Quality Not available.
Flu Activity Not available.
METAR KCEU 011654Z AUTO 00000KT 4SM HZ BKN006 OVC012 06/02 A3049 RMK AO2 SLP328 T00560022

More Conditions Fewer Conditions

Pressure 30.50 in
Visibility 4.0 miles
Clouds Mostly Cloudy 600 ft
Overcast 1200 ft
Windchill 41 °F
Dew Point 40 °F
Humidity 95%
Rainfall 0.11 in
Snow Depth Not available.
UV 2 out of 12
Pollen 4.50 out of 12
Air Quality Not available.
Flu Activity Not available.
METAR KCEU 011654Z AUTO 00000KT 4SM HZ BKN006 OVC012 06/02 A3049 RMK AO2 SLP328 T00560022

More Conditions Fewer Conditions

10-Day Weather Forecast

Almanac

Astronomy

Mar. 01, 2015 Rise Set
Actual Time
Civil Twilight
Nautical Twilight
Astronomical Twilight
Moon
Length of Visible Light
Length of Day
Tomorrow will be .
, % of the Moon is Illuminated

Today's Extremes

State Highs State Lows

Community

WunderPhotos

Upload Photos

1,801,462 photos uploaded!

WunderBlogs® & News

Nearby

Air Quality

  Air Quality AQ Index Pollutant
Not available.

Snow Depth

Station Depth Elevation

Earthquake Activity

City Distance Mag. Time & Date
Minimum magnitude displayed is 2.5.

Coastal Water Temperatures

Place Temperature

Nearby Weather Stations